Time;durP1;ratioP1;P1;durP2;ratioP2;P2;SDS_P1;SDS_P2;PMS_P1;PMS_P2;Temp;Humidity;BMP_temperature;BMP_pressure;BME280_temperature;BME280_humidity;BME280_pressure;Samples;Min_cycle;Max_cycle;Signal;HPM_P1;HPM_P2
2023/12/12 00:00:42;;;;;;;;;;;;;;;8.93;65.58;97322.84;5009925;28;19933;-63
2023/12/12 00:03:30;;;;;;;;;;;;;;;9.03;65.43;97327.19;5004753;28;20461;-60
2023/12/12 00:06:20;;;;;;;;;;;;;;;9.00;65.68;97338.63;5009715;28;19929;-63
2023/12/12 00:09:08;;;;;;;;;;;;;;;8.98;65.84;97346.28;5015021;28;20359;-63
2023/12/12 00:11:58;;;;;;;;;;;;;;;8.90;65.69;97356.78;5007583;28;19933;-63
2023/12/12 00:14:46;;;;;;;;;;;;;;;9.01;65.52;97351.09;5010381;28;20275;-63
2023/12/12 00:17:34;;;;;;;;;;;;;;;8.88;66.11;97353.59;5003193;28;19925;-62
2023/12/12 00:20:22;;;;;;;;;;;;;;;8.95;66.00;97353.16;5007629;28;19929;-62
2023/12/12 00:23:10;;;;;;;;;;;;;;;9.03;65.96;97354.28;5008682;28;20367;-62
2023/12/12 00:25:58;;;;;;;;;;;;;;;9.00;65.80;97349.47;5014943;28;20009;-63
2023/12/12 00:28:48;;;;;;;;;;;;;;;8.87;66.28;97354.69;5010272;28;19932;-63
2023/12/12 00:31:36;;;;;;;;;;;;;;;8.93;66.20;97361.56;5004143;28;20392;-62
2023/12/12 00:34:24;;;;;;;;;;;;;;;8.91;66.41;97366.50;5006321;28;19922;-62
2023/12/12 00:37:12;;;;;;;;;;;;;;;8.92;66.50;97368.09;5009167;28;19933;-62
2023/12/12 00:40:00;;;;;;;;;;;;;;;8.92;66.16;97370.81;5008260;28;19944;-63
2023/12/12 00:42:48;;;;;;;;;;;;;;;8.96;66.17;97373.72;5010651;28;20382;-63
2023/12/12 00:45:37;;;;;;;;;;;;;;;8.97;65.99;97378.00;5010799;28;19933;-60
2023/12/12 00:48:26;;;;;;;;;;;;;;;8.97;66.02;97382.63;5010269;28;19995;-60
2023/12/12 00:51:15;;;;;;;;;;;;;;;8.98;65.79;97378.81;5009194;28;19925;-63
2023/12/12 00:54:03;;;;;;;;;;;;;;;8.93;65.94;97374.31;5009097;28;19925;-62
2023/12/12 00:56:51;;;;;;;;;;;;;;;8.94;66.33;97370.50;5006634;28;19952;-63
2023/12/12 00:59:40;;;;;;;;;;;;;;;8.92;66.24;97361.91;5008038;28;20423;-62
2023/12/12 01:02:29;;;;;;;;;;;;;;;8.97;66.42;97358.25;5007356;28;20026;-60
2023/12/12 01:05:17;;;;;;;;;;;;;;;8.90;66.40;97367.63;5010693;28;19933;-60
2023/12/12 01:08:05;;;;;;;;;;;;;;;8.81;66.47;97371.41;5006774;28;19922;-60
2023/12/12 01:10:54;;;;;;;;;;;;;;;8.83;66.56;97374.59;5006371;28;19925;-63
2023/12/12 01:13:41;;;;;;;;;;;;;;;8.81;66.82;97385.75;5004028;28;20364;-62
2023/12/12 01:16:29;;;;;;;;;;;;;;;8.75;66.87;97388.91;5008315;28;20028;-62
2023/12/12 01:19:19;;;;;;;;;;;;;;;8.79;67.07;97377.16;5010466;28;20282;-63
2023/12/12 01:22:07;;;;;;;;;;;;;;;8.74;66.93;97380.00;5008671;28;19925;-63
2023/12/12 01:24:55;;;;;;;;;;;;;;;8.78;67.02;97383.66;5006411;28;19933;-62
2023/12/12 01:27:44;;;;;;;;;;;;;;;8.75;67.22;97384.28;5010165;28;19925;-60
2023/12/12 01:30:32;;;;;;;;;;;;;;;8.63;67.92;97386.81;5007818;28;20008;-60
2023/12/12 01:33:23;;;;;;;;;;;;;;;8.65;68.01;97385.38;5006571;28;19929;-60
2023/12/12 01:36:13;;;;;;;;;;;;;;;8.58;68.30;97373.41;5009050;28;19926;-61
2023/12/12 01:39:00;;;;;;;;;;;;;;;8.58;68.51;97371.47;5008640;28;19926;-60
2023/12/12 01:41:49;;;;;;;;;;;;;;;8.54;68.57;97384.03;5005582;28;19921;-63
2023/12/12 01:44:37;;;;;;;;;;;;;;;8.51;68.79;97381.13;5004539;28;20000;-63
2023/12/12 01:47:25;;;;;;;;;;;;;;;8.52;68.89;97382.72;5007448;28;20501;-60
2023/12/12 01:50:13;;;;;;;;;;;;;;;8.45;68.72;97383.19;5001275;28;20295;-60
2023/12/12 01:53:03;;;;;;;;;;;;;;;8.42;68.88;97375.69;5002432;28;20405;-63
2023/12/12 01:55:51;;;;;;;;;;;;;;;8.42;69.17;97377.59;5021640;28;20059;-63
2023/12/12 01:58:39;;;;;;;;;;;;;;;8.45;68.99;97376.97;5011163;28;19929;-62
2023/12/12 02:01:29;;;;;;;;;;;;;;;8.39;69.01;97379.00;5005840;28;21287;-63
2023/12/12 02:04:18;;;;;;;;;;;;;;;8.41;69.37;97376.78;5009841;28;20264;-63
2023/12/12 02:07:06;;;;;;;;;;;;;;;8.39;69.54;97373.59;5005615;28;19925;-62
2023/12/12 02:09:55;;;;;;;;;;;;;;;8.43;69.25;97373.78;5009322;28;19928;-60
2023/12/12 02:12:43;;;;;;;;;;;;;;;8.50;69.24;97374.13;5005398;28;19964;-61
2023/12/12 02:15:31;;;;;;;;;;;;;;;8.46;69.09;97365.03;5007921;28;19921;-61
2023/12/12 02:18:19;;;;;;;;;;;;;;;8.55;68.77;97365.88;5001760;28;20063;-60
2023/12/12 02:21:07;;;;;;;;;;;;;;;8.41;69.34;97368.66;5004433;28;19922;-60
2023/12/12 02:23:57;;;;;;;;;;;;;;;8.37;69.50;97365.00;5002016;28;19931;-60
2023/12/12 02:26:44;;;;;;;;;;;;;;;8.38;69.66;97356.56;5002090;28;20032;-60
2023/12/12 02:29:32;;;;;;;;;;;;;;;8.32;69.95;97365.09;5003574;28;19925;-61
2023/12/12 02:32:20;;;;;;;;;;;;;;;8.32;69.94;97363.19;5005692;28;19926;-61
2023/12/12 02:35:08;;;;;;;;;;;;;;;8.40;69.68;97359.75;5002913;28;20310;-61
2023/12/12 02:37:56;;;;;;;;;;;;;;;8.28;70.45;97366.81;5007510;28;20402;-61
2023/12/12 02:40:46;;;;;;;;;;;;;;;8.28;70.58;97364.13;5005956;28;20004;-62
2023/12/12 02:43:34;;;;;;;;;;;;;;;8.21;70.88;97364.56;5002839;28;19992;-61
2023/12/12 02:46:22;;;;;;;;;;;;;;;8.20;71.11;97362.94;5008877;28;19925;-61
2023/12/12 02:49:10;;;;;;;;;;;;;;;8.31;70.72;97356.19;5003350;28;19949;-61
2023/12/12 02:51:58;;;;;;;;;;;;;;;8.41;70.41;97352.41;5009025;28;19932;-61
2023/12/12 02:54:46;;;;;;;;;;;;;;;8.30;70.86;97349.16;5005747;28;19929;-61
2023/12/12 02:57:36;;;;;;;;;;;;;;;8.35;70.85;97350.94;5012696;28;20040;-61
2023/12/12 03:00:24;;;;;;;;;;;;;;;8.43;70.79;97352.13;5009860;28;19921;-61
2023/12/12 03:03:12;;;;;;;;;;;;;;;8.49;70.52;97361.72;5010505;28;19929;-61
2023/12/12 03:06:00;;;;;;;;;;;;;;;8.42;70.79;97350.53;5011847;28;19928;-61
2023/12/12 03:08:48;;;;;;;;;;;;;;;8.56;70.57;97357.44;5011640;28;19988;-61
2023/12/12 03:11:36;;;;;;;;;;;;;;;8.47;70.85;97353.91;5009838;28;20482;-61
2023/12/12 03:14:28;;;;;;;;;;;;;;;8.55;70.62;97355.06;5010331;28;19926;-61
2023/12/12 03:17:16;;;;;;;;;;;;;;;8.37;71.22;97349.56;5012180;28;20378;-61
2023/12/12 03:20:05;;;;;;;;;;;;;;;8.47;71.01;97347.66;5019551;28;19921;-61
2023/12/12 03:22:53;;;;;;;;;;;;;;;8.46;71.27;97348.78;5016330;28;19932;-61
2023/12/12 03:25:41;;;;;;;;;;;;;;;8.55;70.90;97349.63;5012388;28;19972;-61
2023/12/12 03:28:29;;;;;;;;;;;;;;;8.49;71.22;97350.88;5010481;28;19921;-60
2023/12/12 03:31:19;;;;;;;;;;;;;;;8.38;71.89;97345.72;5005145;28;19926;-60
2023/12/12 03:34:07;;;;;;;;;;;;;;;8.52;71.25;97339.41;5011471;28;19929;-63
2023/12/12 03:36:55;;;;;;;;;;;;;;;8.46;71.37;97346.09;5007501;28;19971;-62
2023/12/12 03:39:44;;;;;;;;;;;;;;;8.54;71.22;97346.13;5008142;28;19922;-62
2023/12/12 03:42:31;;;;;;;;;;;;;;;8.60;71.15;97346.78;5009559;28;19936;-63
2023/12/12 03:45:19;;;;;;;;;;;;;;;8.54;71.43;97359.66;5011169;28;19929;-63
2023/12/12 03:48:09;;;;;;;;;;;;;;;8.38;72.04;97361.97;5009372;28;19922;-62
2023/12/12 03:50:58;;;;;;;;;;;;;;;8.46;71.77;97363.13;5001554;28;19944;-62
2023/12/12 03:53:46;;;;;;;;;;;;;;;8.37;72.22;97357.69;5010982;28;19930;-63
2023/12/12 03:56:34;;;;;;;;;;;;;;;8.48;71.87;97365.53;5006918;28;19925;-62
2023/12/12 03:59:22;;;;;;;;;;;;;;;8.47;71.81;97369.31;5009768;28;20000;-62
2023/12/12 04:02:10;;;;;;;;;;;;;;;8.53;71.59;97362.69;5010713;28;20072;-60
2023/12/12 04:04:59;;;;;;;;;;;;;;;8.52;71.62;97369.19;5010834;28;20403;-63
2023/12/12 04:07:47;;;;;;;;;;;;;;;8.59;71.15;97364.94;5005716;28;19925;-63
2023/12/12 04:10:35;;;;;;;;;;;;;;;8.57;71.34;97363.66;5008949;28;20032;-62
2023/12/12 04:13:23;;;;;;;;;;;;;;;8.53;71.45;97365.41;5006702;28;19922;-63
2023/12/12 04:16:11;;;;;;;;;;;;;;;8.52;71.64;97361.06;5005337;28;19921;-63
2023/12/12 04:18:59;;;;;;;;;;;;;;;8.42;71.90;97362.16;5008609;28;19933;-63
2023/12/12 04:21:49;;;;;;;;;;;;;;;8.52;71.34;97361.91;5006820;28;19929;-63
2023/12/12 04:24:38;;;;;;;;;;;;;;;8.50;71.64;97360.59;5009140;28;19925;-63
2023/12/12 04:27:26;;;;;;;;;;;;;;;8.44;71.90;97359.13;5008182;28;19925;-62
2023/12/12 04:30:14;;;;;;;;;;;;;;;8.46;71.68;97365.03;5008398;28;19944;-62
2023/12/12 04:33:02;;;;;;;;;;;;;;;8.38;72.05;97361.97;5007596;28;19921;-62
2023/12/12 04:35:51;;;;;;;;;;;;;;;8.36;72.16;97358.78;5005807;28;19922;-62
2023/12/12 04:38:41;;;;;;;;;;;;;;;8.21;72.45;97356.44;5010160;28;20004;-62
2023/12/12 04:41:29;;;;;;;;;;;;;;;8.33;72.21;97351.25;5007989;28;19921;-61
2023/12/12 04:44:17;;;;;;;;;;;;;;;8.24;72.51;97355.00;5005466;28;19929;-62
2023/12/12 04:47:05;;;;;;;;;;;;;;;8.30;72.51;97353.75;5014742;28;19925;-62
2023/12/12 04:49:53;;;;;;;;;;;;;;;8.27;72.45;97357.09;5008912;28;19930;-62
2023/12/12 04:52:41;;;;;;;;;;;;;;;8.28;72.35;97361.41;5005018;28;19990;-62
2023/12/12 04:55:31;;;;;;;;;;;;;;;8.26;72.32;97361.72;5008012;28;20044;-61
2023/12/12 04:58:19;;;;;;;;;;;;;;;8.07;72.92;97359.19;5009647;28;20032;-62
2023/12/12 05:01:07;;;;;;;;;;;;;;;8.13;72.88;97359.88;5006690;28;19961;-62
2023/12/12 05:03:55;;;;;;;;;;;;;;;8.21;72.52;97364.56;5003381;28;20643;-63
2023/12/12 05:06:43;;;;;;;;;;;;;;;8.21;72.35;97367.25;5008992;28;20446;-62
2023/12/12 05:09:31;;;;;;;;;;;;;;;8.14;72.84;97361.47;5004426;28;20502;-62
2023/12/12 05:12:21;;;;;;;;;;;;;;;8.25;72.31;97362.81;5004919;28;19925;-62
2023/12/12 05:15:09;;;;;;;;;;;;;;;8.31;72.27;97358.06;5004511;28;19948;-62
2023/12/12 05:17:57;;;;;;;;;;;;;;;8.47;71.96;97363.91;5001983;28;19929;-61
2023/12/12 05:20:45;;;;;;;;;;;;;;;8.57;71.46;97358.22;5002260;28;20383;-61
2023/12/12 05:23:33;;;;;;;;;;;;;;;8.69;70.84;97350.34;5008533;28;19925;-61
2023/12/12 05:26:21;;;;;;;;;;;;;;;8.82;70.40;97354.84;5005228;28;19933;-62
2023/12/12 05:29:11;;;;;;;;;;;;;;;8.86;70.21;97352.31;5013699;28;20402;-62
2023/12/12 05:31:59;;;;;;;;;;;;;;;8.89;70.00;97343.53;5007523;28;20385;-62
2023/12/12 05:34:47;;;;;;;;;;;;;;;8.85;69.96;97340.69;5007728;28;20740;-62
2023/12/12 05:37:36;;;;;;;;;;;;;;;8.86;69.69;97355.81;5014662;28;19925;-61
2023/12/12 05:40:24;;;;;;;;;;;;;;;9.02;69.27;97347.25;5006528;28;19932;-62
2023/12/12 05:43:12;;;;;;;;;;;;;;;8.88;69.43;97350.09;5008139;28;19999;-61
2023/12/12 05:46:02;;;;;;;;;;;;;;;8.75;69.99;97359.94;5005019;28;20060;-62
2023/12/12 05:48:51;;;;;;;;;;;;;;;8.82;69.99;97349.44;5006472;28;19930;-62
2023/12/12 05:51:40;;;;;;;;;;;;;;;8.96;69.71;97345.81;5008732;28;19925;-62
2023/12/12 05:54:28;;;;;;;;;;;;;;;8.95;69.35;97344.19;5009756;28;20299;-62
2023/12/12 05:57:17;;;;;;;;;;;;;;;9.07;69.20;97350.63;5008192;28;19929;-62
2023/12/12 06:00:06;;;;;;;;;;;;;;;9.11;68.91;97356.22;5007879;28;19940;-61
2023/12/12 06:03:02;;;;;;;;;;;;;;;9.03;69.14;97354.28;4996253;28;19926;-61
2023/12/12 06:05:51;;;;;;;;;;;;;;;9.03;69.05;97357.78;5009437;28;20020;-61
2023/12/12 06:08:39;;;;;;;;;;;;;;;8.97;69.37;97356.34;5004028;28;19926;-62
2023/12/12 06:11:27;;;;;;;;;;;;;;;9.11;69.06;97361.66;5006396;28;20087;-62
2023/12/12 06:14:15;;;;;;;;;;;;;;;8.97;69.12;97360.97;5008987;28;20129;-62
2023/12/12 06:17:03;;;;;;;;;;;;;;;8.99;69.53;97359.50;4999412;28;19926;-62
2023/12/12 06:19:53;;;;;;;;;;;;;;;9.05;69.34;97358.25;5007908;28;20384;-62
2023/12/12 06:22:42;;;;;;;;;;;;;;;9.04;69.14;97361.28;5005879;28;19940;-61
2023/12/12 06:25:30;;;;;;;;;;;;;;;8.88;69.50;97350.88;5003534;28;19937;-62
2023/12/12 06:28:18;;;;;;;;;;;;;;;9.18;69.04;97351.13;5007186;28;19933;-62
2023/12/12 06:31:07;;;;;;;;;;;;;;;9.27;68.54;97351.97;5005227;28;19929;-63
2023/12/12 06:33:55;;;;;;;;;;;;;;;9.31;68.55;97330.41;5005964;28;19973;-62
2023/12/12 06:36:44;;;;;;;;;;;;;;;9.30;68.44;97332.34;5012595;28;20287;-62
2023/12/12 06:39:34;;;;;;;;;;;;;;;9.48;67.96;97343.19;5007402;28;19926;-62
2023/12/12 06:42:22;;;;;;;;;;;;;;;9.47;68.00;97341.59;5008388;28;19973;-62
2023/12/12 06:45:10;;;;;;;;;;;;;;;9.39;67.92;97333.16;5009592;28;20367;-63
2023/12/12 06:47:59;;;;;;;;;;;;;;;9.39;68.16;97335.84;5005371;28;19925;-62
2023/12/12 06:50:47;;;;;;;;;;;;;;;9.31;68.48;97339.34;5006212;28;20083;-62
2023/12/12 06:53:36;;;;;;;;;;;;;;;9.34;68.59;97344.16;5010828;28;19932;-62
2023/12/12 06:56:24;;;;;;;;;;;;;;;9.32;68.45;97340.97;5007558;28;20298;-62
2023/12/12 06:59:12;;;;;;;;;;;;;;;9.34;68.22;97338.72;5005638;28;20028;-62
2023/12/12 07:02:00;;;;;;;;;;;;;;;9.45;68.12;97345.44;5003288;28;19925;-62
2023/12/12 07:04:51;;;;;;;;;;;;;;;9.39;68.45;97340.50;5011370;28;20019;-62
2023/12/12 07:07:39;;;;;;;;;;;;;;;9.35;68.50;97334.91;5007839;28;20023;-62
2023/12/12 07:10:29;;;;;;;;;;;;;;;9.32;68.50;97335.53;5009124;28;20331;-62
2023/12/12 07:13:17;;;;;;;;;;;;;;;9.32;68.20;97335.53;5008127;28;19929;-62
2023/12/12 07:16:06;;;;;;;;;;;;;;;9.29;68.61;97330.75;5009150;28;19929;-62
2023/12/12 07:18:54;;;;;;;;;;;;;;;9.31;68.41;97319.56;5011100;28;20530;-62
2023/12/12 07:21:43;;;;;;;;;;;;;;;9.24;68.79;97328.19;5011943;28;19929;-62
2023/12/12 07:24:31;;;;;;;;;;;;;;;9.29;68.64;97329.94;5005615;28;20371;-62
2023/12/12 07:27:20;;;;;;;;;;;;;;;9.25;68.72;97324.34;5010991;28;20437;-62
2023/12/12 07:30:09;;;;;;;;;;;;;;;9.23;68.51;97323.88;5005271;28;19930;-61
2023/12/12 07:32:58;;;;;;;;;;;;;;;9.17;68.78;97325.16;5005866;28;20073;-65
2023/12/12 07:35:46;;;;;;;;;;;;;;;9.22;68.36;97319.59;5011353;28;19949;-62
2023/12/12 07:38:37;;;;;;;;;;;;;;;9.19;68.60;97312.06;5009147;28;20431;-62
2023/12/12 07:41:25;;;;;;;;;;;;;;;9.15;68.77;97311.91;4999124;28;19936;-62
2023/12/12 07:44:15;;;;;;;;;;;;;;;9.27;68.38;97316.72;5009021;28;19925;-62
2023/12/12 07:47:02;;;;;;;;;;;;;;;9.32;68.02;97313.03;5007914;28;19930;-62
2023/12/12 07:49:50;;;;;;;;;;;;;;;9.29;68.42;97314.47;5008522;28;19935;-62
2023/12/12 07:52:38;;;;;;;;;;;;;;;9.26;68.38;97315.09;5007957;28;20288;-62
2023/12/12 07:55:27;;;;;;;;;;;;;;;9.23;68.77;97323.88;5012753;28;19925;-62
2023/12/12 07:58:15;;;;;;;;;;;;;;;9.31;68.59;97319.56;5000703;28;20368;-62
2023/12/12 08:01:06;;;;;;;;;;;;;;;9.33;68.59;97314.66;5008092;28;19929;-61
2023/12/12 08:03:55;;;;;;;;;;;;;;;9.40;68.40;97315.75;5001165;28;20470;-61
2023/12/12 08:06:43;;;;;;;;;;;;;;;9.49;68.48;97312.28;5011450;28;20016;-61
2023/12/12 08:09:31;;;;;;;;;;;;;;;9.54;67.94;97303.97;5010871;28;20395;-61
2023/12/12 08:12:21;;;;;;;;;;;;;;;9.67;67.75;97303.00;5004792;28;20020;-61
2023/12/12 08:15:09;;;;;;;;;;;;;;;9.76;67.42;97305.72;5008856;28;20039;-61
2023/12/12 08:17:59;;;;;;;;;;;;;;;9.68;66.98;97299.16;5007882;28;20060;-61
2023/12/12 08:20:47;;;;;;;;;;;;;;;9.79;67.12;97305.84;5004862;28;19929;-61
2023/12/12 08:23:37;;;;;;;;;;;;;;;9.70;67.05;97310.53;5013205;28;19926;-61
2023/12/12 08:26:24;;;;;;;;;;;;;;;9.76;67.25;97311.94;5009001;28;19983;-61
2023/12/12 08:29:14;;;;;;;;;;;;;;;9.80;67.15;97307.47;5014227;28;19948;-61
2023/12/12 08:32:04;;;;;;;;;;;;;;;9.70;67.41;97310.53;5011241;28;19975;-61
2023/12/12 08:34:53;;;;;;;;;;;;;;;9.76;67.22;97311.94;5002859;28;19934;-61
2023/12/12 08:37:41;;;;;;;;;;;;;;;9.83;66.85;97301.41;5009673;28;20427;-61
2023/12/12 08:40:29;;;;;;;;;;;;;;;9.74;67.42;97305.22;5007342;28;19936;-61
2023/12/12 08:43:17;;;;;;;;;;;;;;;9.80;66.96;97307.47;5006387;28;19933;-61
2023/12/12 08:46:06;;;;;;;;;;;;;;;9.81;66.84;97309.06;5006110;28;19933;-62
2023/12/12 08:48:55;;;;;;;;;;;;;;;9.74;66.62;97302.50;5009171;28;20387;-61
2023/12/12 08:51:44;;;;;;;;;;;;;;;9.83;66.44;97290.53;5003072;28;20063;-61
2023/12/12 08:54:32;;;;;;;;;;;;;;;9.72;66.71;97283.84;5007742;28;19926;-61
2023/12/12 08:57:20;;;;;;;;;;;;;;;9.74;66.58;97273.47;5006580;28;19944;-61
2023/12/12 09:00:10;;;;;;;;;;;;;;;9.54;66.76;97266.81;5001589;28;19937;-61
2023/12/12 09:02:59;;;;;;;;;;;;;;;9.43;67.07;97263.63;5003480;28;19933;-61
2023/12/12 09:05:47;;;;;;;;;;;;;;;9.52;66.59;97265.53;5006971;28;19925;-61
2023/12/12 09:08:37;;;;;;;;;;;;;;;9.55;66.47;97267.59;5005890;28;20384;-61
2023/12/12 09:11:25;;;;;;;;;;;;;;;9.51;67.01;97266.66;5005408;28;20012;-61
2023/12/12 09:14:13;;;;;;;;;;;;;;;9.37;66.88;97273.00;5008814;28;19931;-61
2023/12/12 09:17:01;;;;;;;;;;;;;;;9.44;67.17;97272.56;5004769;28;20395;-61
2023/12/12 09:19:49;;;;;;;;;;;;;;;9.39;66.79;97268.09;5005297;28;20421;-61
2023/12/12 09:22:37;;;;;;;;;;;;;;;9.43;66.98;97274.47;5005819;28;19948;-61
2023/12/12 09:25:27;;;;;;;;;;;;;;;9.32;67.33;97280.50;5008328;28;19925;-61
2023/12/12 09:28:16;;;;;;;;;;;;;;;9.27;67.73;97286.91;5008852;28;20056;-61
2023/12/12 09:31:04;;;;;;;;;;;;;;;9.46;67.12;97275.72;5007887;28;20323;-61
2023/12/12 09:33:52;;;;;;;;;;;;;;;9.32;66.73;97265.06;5007088;28;19932;-61
2023/12/12 09:36:40;;;;;;;;;;;;;;;9.49;66.58;97252.63;5008536;28;19940;-61
2023/12/12 09:39:28;;;;;;;;;;;;;;;9.69;66.14;97251.94;5006791;28;19962;-61
2023/12/12 09:42:18;;;;;;;;;;;;;;;9.81;66.03;97254.81;5007389;28;20020;-61
2023/12/12 09:45:07;;;;;;;;;;;;;;;9.81;64.84;97241.25;5003638;28;19930;-61
2023/12/12 09:47:56;;;;;;;;;;;;;;;9.84;64.86;97216.16;5009100;28;20088;-61
2023/12/12 09:50:44;;;;;;;;;;;;;;;9.97;65.29;97193.47;5005411;28;20072;-61
2023/12/12 09:53:35;;;;;;;;;;;;;;;10.12;64.38;97207.63;5012143;28;19925;-61
2023/12/12 09:56:24;;;;;;;;;;;;;;;10.16;64.08;97200.44;5005090;28;20665;-61
2023/12/12 09:59:14;;;;;;;;;;;;;;;10.19;63.90;97202.50;5008274;28;20446;-61
2023/12/12 10:02:02;;;;;;;;;;;;;;;10.22;63.47;97193.69;5005308;28;19929;-61
2023/12/12 10:04:56;;;;;;;;;;;;;;;10.16;63.87;97187.66;5009010;28;19929;-61
2023/12/12 10:07:45;;;;;;;;;;;;;;;10.24;63.46;97196.91;5008125;28;19933;-62
2023/12/12 10:10:40;;;;;;;;;;;;;;;10.17;63.26;97196.59;5007004;28;19932;-61
2023/12/12 10:13:28;;;;;;;;;;;;;;;10.22;63.04;97194.47;5002685;28;20423;-61
2023/12/12 10:16:17;;;;;;;;;;;;;;;10.08;63.52;97207.50;5010591;28;19931;-61
2023/12/12 10:19:06;;;;;;;;;;;;;;;10.17;64.05;97212.88;5008045;28;20435;-61
2023/12/12 10:21:54;;;;;;;;;;;;;;;9.97;64.63;97209.75;5010290;28;20327;-61
2023/12/12 10:24:43;;;;;;;;;;;;;;;10.00;64.21;97221.06;5006727;28;20283;-62
2023/12/12 10:27:32;;;;;;;;;;;;;;;9.87;64.56;97210.09;5005453;28;20024;-62
2023/12/12 10:30:21;;;;;;;;;;;;;;;9.90;64.75;97190.47;5008277;28;19987;-61
2023/12/12 10:33:14;;;;;;;;;;;;;;;9.97;64.99;97176.41;5005378;28;19929;-62
2023/12/12 10:36:03;;;;;;;;;;;;;;;10.03;64.86;97172.38;5003754;28;19991;-61
2023/12/12 10:38:52;;;;;;;;;;;;;;;9.76;65.34;97168.19;5009791;28;19937;-61
2023/12/12 10:41:40;;;;;;;;;;;;;;;9.45;66.18;97166.50;5011823;28;19929;-61
2023/12/12 10:44:30;;;;;;;;;;;;;;;9.75;65.93;97168.47;5008850;28;20013;-61
2023/12/12 10:47:18;;;;;;;;;;;;;;;9.78;66.09;97173.28;5004503;28;20582;-61
2023/12/12 10:50:14;;;;;;;;;;;;;;;9.85;65.81;97168.91;5000070;28;20091;-61
2023/12/12 10:53:03;;;;;;;;;;;;;;;9.81;65.50;97149.00;4999673;28;19934;-61
2023/12/12 10:55:52;;;;;;;;;;;;;;;9.84;65.87;97144.84;4998936;28;19939;-61
2023/12/12 10:58:40;;;;;;;;;;;;;;;9.99;65.46;97130.75;5001098;28;19925;-61
2023/12/12 11:01:28;;;;;;;;;;;;;;;10.00;65.86;97136.97;5002006;28;19932;-61
2023/12/12 11:04:17;;;;;;;;;;;;;;;10.16;65.35;97129.84;5009447;28;20007;-61
2023/12/12 11:07:06;;;;;;;;;;;;;;;10.26;64.81;97131.44;5002515;28;20036;-61
2023/12/12 11:09:54;;;;;;;;;;;;;;;10.27;64.20;97120.25;5005934;28;19926;-61
2023/12/12 11:12:45;;;;;;;;;;;;;;;10.18;64.68;97114.84;5005394;28;19936;-61
2023/12/12 11:15:33;;;;;;;;;;;;;;;10.13;65.24;97108.81;5011367;28;20012;-61
2023/12/12 11:18:23;;;;;;;;;;;;;;;10.25;65.04;97103.50;5008695;28;20376;-61
2023/12/12 11:21:26;;;;;;;;;;;;;;;10.27;64.89;97101.25;5005577;28;19929;-61
2023/12/12 11:24:16;;;;;;;;;;;;;;;10.32;64.50;97089.41;5009811;28;19991;-62
2023/12/12 11:27:05;;;;;;;;;;;;;;;10.14;65.06;97094.91;5009293;28;19926;-61
2023/12/12 11:29:53;;;;;;;;;;;;;;;10.22;65.26;97112.25;5009903;28;19929;-61
2023/12/12 11:32:42;;;;;;;;;;;;;;;10.43;64.59;97117.75;5005325;28;20380;-61
2023/12/12 11:35:30;;;;;;;;;;;;;;;10.27;65.11;97103.94;5009915;28;20543;-61
2023/12/12 11:38:27;;;;;;;;;;;;;;;10.38;64.96;97107.88;5011590;28;19925;-61
2023/12/12 11:41:16;;;;;;;;;;;;;;;10.18;65.77;97101.28;5009332;28;19940;-61
2023/12/12 11:44:05;;;;;;;;;;;;;;;10.26;65.51;97096.16;5013646;28;19940;-61
2023/12/12 11:46:54;;;;;;;;;;;;;;;10.22;65.86;97083.19;5008474;28;20510;-61
2023/12/12 11:49:43;;;;;;;;;;;;;;;9.83;67.03;97070.81;5012124;28;19973;-61
2023/12/12 11:52:47;;;;;;;;;;;;;;;10.04;67.06;97068.13;5010164;28;19929;-61
2023/12/12 11:55:42;;;;;;;;;;;;;;;10.11;66.48;97056.75;5011655;28;19926;-61
2023/12/12 11:58:32;;;;;;;;;;;;;;;10.03;67.06;97060.34;5007521;28;19930;-61
2023/12/12 12:01:21;;;;;;;;;;;;;;;9.97;67.40;97049.66;5006571;28;19925;-61
2023/12/12 12:04:10;;;;;;;;;;;;;;;9.92;67.43;97058.00;5005393;28;19925;-61
2023/12/12 12:06:58;;;;;;;;;;;;;;;9.73;68.45;97054.88;5016009;28;19925;-61
2023/12/12 12:09:47;;;;;;;;;;;;;;;9.94;68.22;97052.22;5010139;28;19933;-61
2023/12/12 12:12:35;;;;;;;;;;;;;;;10.12;68.02;97044.78;5003429;28;19925;-61
2023/12/12 12:15:24;;;;;;;;;;;;;;;10.03;68.29;97039.41;5009187;28;20068;-61
2023/12/12 12:18:24;;;;;;;;;;;;;;;10.10;68.23;97030.75;5011102;28;20334;-61
2023/12/12 12:21:12;;;;;;;;;;;;;;;10.09;68.21;97015.59;5011197;28;20800;-61
2023/12/12 12:24:03;;;;;;;;;;;;;;;9.84;69.40;97003.78;5004423;28;19932;-62
2023/12/12 12:26:51;;;;;;;;;;;;;;;9.95;69.37;96994.91;5009281;28;19925;-62
2023/12/12 12:29:39;;;;;;;;;;;;;;;10.04;69.18;96986.72;5010400;28;20016;-61
2023/12/12 12:32:28;;;;;;;;;;;;;;;9.87;69.50;96971.38;5002801;28;19925;-61
2023/12/12 12:35:16;;;;;;;;;;;;;;;9.87;70.11;96952.38;5007005;28;19930;-61
2023/12/12 12:38:19;;;;;;;;;;;;;;;9.87;69.91;96946.94;5008315;28;20072;-61
2023/12/12 12:41:21;;;;;;;;;;;;;;;10.14;69.78;96953.78;5006550;28;19926;-61
2023/12/12 12:44:10;;;;;;;;;;;;;;;10.32;69.53;96961.78;5007702;28;19925;-61
2023/12/12 12:46:58;;;;;;;;;;;;;;;10.39;69.14;96959.38;5003940;28;19936;-62
2023/12/12 12:49:47;;;;;;;;;;;;;;;10.35;69.41;96953.78;5006682;28;19937;-61
2023/12/12 12:52:36;;;;;;;;;;;;;;;10.23;69.48;96957.25;5009032;28;19933;-61
2023/12/12 12:55:24;;;;;;;;;;;;;;;10.28;69.40;96948.13;5009328;28;20396;-61
2023/12/12 12:58:13;;;;;;;;;;;;;;;10.27;69.46;96951.13;5009762;28;19929;-61
2023/12/12 13:01:01;;;;;;;;;;;;;;;10.16;69.82;96943.38;5010967;28;20039;-61
2023/12/12 13:03:49;;;;;;;;;;;;;;;9.84;70.79;96955.75;5000933;28;19925;-61
2023/12/12 13:06:38;;;;;;;;;;;;;;;10.00;70.43;96944.31;5004510;28;20291;-61
2023/12/12 13:09:27;;;;;;;;;;;;;;;10.07;70.28;96939.94;5003263;28;19925;-61
2023/12/12 13:12:15;;;;;;;;;;;;;;;9.70;71.60;96928.09;5005276;28;19936;-61
2023/12/12 13:15:04;;;;;;;;;;;;;;;9.36;73.21;96923.66;5006327;28;19929;-61
2023/12/12 13:17:52;;;;;;;;;;;;;;;9.66;72.40;96921.72;5009378;28;20621;-61
2023/12/12 13:20:41;;;;;;;;;;;;;;;9.79;72.08;96903.59;5011699;28;19969;-61
2023/12/12 13:23:33;;;;;;;;;;;;;;;9.25;73.89;96889.91;5010152;28;19926;-61
2023/12/12 13:26:22;;;;;;;;;;;;;;;9.27;74.20;96885.78;5003666;28;20362;-61
2023/12/12 13:29:10;;;;;;;;;;;;;;;9.26;74.09;96876.03;5011055;28;19925;-61
2023/12/12 13:31:58;;;;;;;;;;;;;;;9.45;73.81;96864.75;5009143;28;20316;-61
2023/12/12 13:34:49;;;;;;;;;;;;;;;9.51;74.02;96868.88;5010153;28;19948;-61
2023/12/12 13:37:38;;;;;;;;;;;;;;;9.63;73.62;96876.28;5005360;28;19925;-61
2023/12/12 13:40:28;;;;;;;;;;;;;;;9.80;73.12;96878.06;5007252;28;20260;-61
2023/12/12 13:43:16;;;;;;;;;;;;;;;9.93;72.93;96877.81;5003990;28;20008;-62
2023/12/12 13:46:05;;;;;;;;;;;;;;;10.04;72.56;96880.09;5008744;28;19926;-61
2023/12/12 13:48:54;;;;;;;;;;;;;;;10.12;72.33;96881.94;5009766;28;19937;-61
2023/12/12 13:51:42;;;;;;;;;;;;;;;10.15;72.24;96884.00;5001374;28;19933;-61
2023/12/12 13:54:34;;;;;;;;;;;;;;;10.21;71.98;96888.09;5009279;28;19980;-62
2023/12/12 13:57:23;;;;;;;;;;;;;;;9.95;72.99;96883.69;5009149;28;19932;-61
2023/12/12 14:00:12;;;;;;;;;;;;;;;10.04;72.82;96874.69;5007500;28;19931;-61
2023/12/12 14:03:04;;;;;;;;;;;;;;;10.06;73.13;96870.50;5007480;28;19930;-61
2023/12/12 14:05:52;;;;;;;;;;;;;;;9.96;73.96;96871.72;5005087;28;19929;-61
2023/12/12 14:08:40;;;;;;;;;;;;;;;10.05;74.11;96868.91;5007730;28;19925;-61
2023/12/12 14:11:28;;;;;;;;;;;;;;;10.18;74.11;96861.63;5008055;28;19933;-61
2023/12/12 14:14:18;;;;;;;;;;;;;;;10.08;74.92;96857.41;5009847;28;19926;-61
2023/12/12 14:17:06;;;;;;;;;;;;;;;10.02;74.93;96850.59;5007402;28;19949;-61
2023/12/12 14:19:55;;;;;;;;;;;;;;;10.04;75.11;96836.69;5008342;28;19925;-61
2023/12/12 14:22:43;;;;;;;;;;;;;;;9.79;76.43;96833.88;5002294;28;20012;-61
2023/12/12 14:25:36;;;;;;;;;;;;;;;9.73;77.33;96820.84;5001934;28;19925;-61
2023/12/12 14:28:24;;;;;;;;;;;;;;;9.85;76.92;96820.88;5001317;28;19926;-61
2023/12/12 14:31:14;;;;;;;;;;;;;;;9.80;77.46;96812.97;5002543;28;19929;-61
2023/12/12 14:34:03;;;;;;;;;;;;;;;9.88;77.47;96815.59;4998327;28;19940;-61
2023/12/12 14:36:52;;;;;;;;;;;;;;;9.95;77.19;96821.28;5002678;28;19979;-61
2023/12/12 14:39:40;;;;;;;;;;;;;;;9.97;77.15;96829.88;4998389;28;20795;-60
2023/12/12 14:42:29;;;;;;;;;;;;;;;9.90;77.45;96817.97;5000774;28;20410;-60
2023/12/12 14:45:18;;;;;;;;;;;;;;;9.98;77.33;96819.81;5002971;28;20421;-61
2023/12/12 14:48:07;;;;;;;;;;;;;;;10.03;77.14;96827.75;4996857;28;19933;-59